sensor_id;sensor_type;location;lat;lon;timestamp;temperature;humidity
41928;DHT22;27616;51.420;6.788;2022-12-18T00:01:26;-6.20;99.90
41928;DHT22;27616;51.420;6.788;2022-12-18T00:03:53;-6.20;99.90
41928;DHT22;27616;51.420;6.788;2022-12-18T00:06:20;-6.30;99.90
41928;DHT22;27616;51.420;6.788;2022-12-18T00:08:46;-6.30;99.90
41928;DHT22;27616;51.420;6.788;2022-12-18T00:11:14;-6.30;99.90
41928;DHT22;27616;51.420;6.788;2022-12-18T00:13:40;-6.40;99.90
41928;DHT22;27616;51.420;6.788;2022-12-18T00:16:11;-6.40;99.90
41928;DHT22;27616;51.420;6.788;2022-12-18T00:18:38;-6.40;99.90
41928;DHT22;27616;51.420;6.788;2022-12-18T00:21:06;-6.40;99.90
41928;DHT22;27616;51.420;6.788;2022-12-18T00:23:33;-6.40;99.90
41928;DHT22;27616;51.420;6.788;2022-12-18T00:26:05;-6.40;99.90
41928;DHT22;27616;51.420;6.788;2022-12-18T00:28:31;-6.40;99.90
41928;DHT22;27616;51.420;6.788;2022-12-18T00:31:05;-6.40;99.90
41928;DHT22;27616;51.420;6.788;2022-12-18T00:33:31;-6.40;99.90
41928;DHT22;27616;51.420;6.788;2022-12-18T00:36:05;-6.40;99.90
41928;DHT22;27616;51.420;6.788;2022-12-18T00:38:31;-6.40;99.90
41928;DHT22;27616;51.420;6.788;2022-12-18T00:40:57;-6.40;99.90
41928;DHT22;27616;51.420;6.788;2022-12-18T00:43:23;-6.30;99.90
41928;DHT22;27616;51.420;6.788;2022-12-18T00:45:49;-6.20;99.90
41928;DHT22;27616;51.420;6.788;2022-12-18T00:48:15;-6.10;99.90
41928;DHT22;27616;51.420;6.788;2022-12-18T00:50:40;-6.10;99.90
41928;DHT22;27616;51.420;6.788;2022-12-18T00:53:09;-6.10;99.90
41928;DHT22;27616;51.420;6.788;2022-12-18T00:55:35;-6.10;99.90
41928;DHT22;27616;51.420;6.788;2022-12-18T00:58:02;-6.10;99.90
41928;DHT22;27616;51.420;6.788;2022-12-18T01:00:28;-6.20;99.90
41928;DHT22;27616;51.420;6.788;2022-12-18T01:02:53;-6.20;99.90
41928;DHT22;27616;51.420;6.788;2022-12-18T01:05:19;-6.20;99.90
41928;DHT22;27616;51.420;6.788;2022-12-18T01:07:45;-6.30;99.90
41928;DHT22;27616;51.420;6.788;2022-12-18T01:10:12;-6.20;99.90
41928;DHT22;27616;51.420;6.788;2022-12-18T01:12:38;-6.30;99.90
41928;DHT22;27616;51.420;6.788;2022-12-18T01:15:05;-6.30;99.90
41928;DHT22;27616;51.420;6.788;2022-12-18T01:17:31;-6.30;99.90
41928;DHT22;27616;51.420;6.788;2022-12-18T01:19:59;-6.30;99.90
41928;DHT22;27616;51.420;6.788;2022-12-18T01:22:25;-6.10;99.90
41928;DHT22;27616;51.420;6.788;2022-12-18T01:24:51;-5.90;99.90
41928;DHT22;27616;51.420;6.788;2022-12-18T01:27:16;-5.70;99.90
41928;DHT22;27616;51.420;6.788;2022-12-18T01:29:42;-5.50;99.90
41928;DHT22;27616;51.420;6.788;2022-12-18T01:32:08;-5.40;99.90
41928;DHT22;27616;51.420;6.788;2022-12-18T01:34:35;-5.30;99.90
41928;DHT22;27616;51.420;6.788;2022-12-18T01:37:04;-5.20;99.90
41928;DHT22;27616;51.420;6.788;2022-12-18T01:39:31;-5.00;99.90
41928;DHT22;27616;51.420;6.788;2022-12-18T01:42:09;-4.80;99.90
41928;DHT22;27616;51.420;6.788;2022-12-18T01:50:18;-4.90;99.90
41928;DHT22;27616;51.420;6.788;2022-12-18T01:52:52;-5.00;99.90
41928;DHT22;27616;51.420;6.788;2022-12-18T01:55:21;-5.10;99.90
41928;DHT22;27616;51.420;6.788;2022-12-18T01:57:48;-5.00;99.90
41928;DHT22;27616;51.420;6.788;2022-12-18T02:00:18;-5.00;99.90
41928;DHT22;27616;51.420;6.788;2022-12-18T02:02:45;-4.90;99.90
41928;DHT22;27616;51.420;6.788;2022-12-18T02:05:15;-4.70;99.90
41928;DHT22;27616;51.420;6.788;2022-12-18T02:18:52;-4.50;99.90
41928;DHT22;27616;51.420;6.788;2022-12-18T02:21:51;-4.40;99.90
41928;DHT22;27616;51.420;6.788;2022-12-18T02:27:01;-4.30;99.90
41928;DHT22;27616;51.420;6.788;2022-12-18T02:29:35;-4.20;99.90
41928;DHT22;27616;51.420;6.788;2022-12-18T02:32:06;-4.20;99.90
41928;DHT22;27616;51.420;6.788;2022-12-18T02:34:38;-4.30;99.90
41928;DHT22;27616;51.420;6.788;2022-12-18T02:37:07;-4.20;99.90
41928;DHT22;27616;51.420;6.788;2022-12-18T02:39:39;-4.30;99.90
41928;DHT22;27616;51.420;6.788;2022-12-18T02:42:06;-4.20;99.90
41928;DHT22;27616;51.420;6.788;2022-12-18T02:44:45;-4.20;99.90
41928;DHT22;27616;51.420;6.788;2022-12-18T02:47:16;-4.40;99.90
41928;DHT22;27616;51.420;6.788;2022-12-18T02:50:18;-4.40;99.90
41928;DHT22;27616;51.420;6.788;2022-12-18T03:01:30;-4.80;99.90
41928;DHT22;27616;51.420;6.788;2022-12-18T03:04:04;-4.90;99.90
41928;DHT22;27616;51.420;6.788;2022-12-18T03:06:35;-5.00;99.90
41928;DHT22;27616;51.420;6.788;2022-12-18T03:09:07;-5.00;99.90
41928;DHT22;27616;51.420;6.788;2022-12-18T03:11:38;-5.10;99.90
41928;DHT22;27616;51.420;6.788;2022-12-18T03:14:25;-5.10;99.90
41928;DHT22;27616;51.420;6.788;2022-12-18T03:16:59;-5.20;99.90
41928;DHT22;27616;51.420;6.788;2022-12-18T03:19:28;-5.20;99.90
41928;DHT22;27616;51.420;6.788;2022-12-18T03:21:59;-5.30;99.90
41928;DHT22;27616;51.420;6.788;2022-12-18T03:24:33;-5.30;99.90
41928;DHT22;27616;51.420;6.788;2022-12-18T03:27:06;-5.20;99.90
41928;DHT22;27616;51.420;6.788;2022-12-18T03:29:59;-5.20;99.90
41928;DHT22;27616;51.420;6.788;2022-12-18T03:32:40;-4.90;99.90
41928;DHT22;27616;51.420;6.788;2022-12-18T03:35:07;-4.80;99.90
41928;DHT22;27616;51.420;6.788;2022-12-18T03:37:36;-4.50;99.90
41928;DHT22;27616;51.420;6.788;2022-12-18T03:40:03;-4.10;99.90
41928;DHT22;27616;51.420;6.788;2022-12-18T03:42:48;-3.90;99.90
41928;DHT22;27616;51.420;6.788;2022-12-18T03:48:05;-3.40;99.90
41928;DHT22;27616;51.420;6.788;2022-12-18T03:55:38;-3.10;99.90
41928;DHT22;27616;51.420;6.788;2022-12-18T03:58:07;-3.00;99.90
41928;DHT22;27616;51.420;6.788;2022-12-18T04:00:48;-3.00;99.90
41928;DHT22;27616;51.420;6.788;2022-12-18T04:03:16;-3.00;99.90
41928;DHT22;27616;51.420;6.788;2022-12-18T04:05:48;-3.00;99.90
41928;DHT22;27616;51.420;6.788;2022-12-18T04:08:18;-3.00;99.90
41928;DHT22;27616;51.420;6.788;2022-12-18T04:10:51;-3.00;99.90
41928;DHT22;27616;51.420;6.788;2022-12-18T04:13:28;-3.00;99.90
41928;DHT22;27616;51.420;6.788;2022-12-18T04:15:56;-3.10;99.90
41928;DHT22;27616;51.420;6.788;2022-12-18T04:18:23;-3.10;99.90
41928;DHT22;27616;51.420;6.788;2022-12-18T04:20:49;-3.10;99.90
41928;DHT22;27616;51.420;6.788;2022-12-18T04:23:16;-3.20;99.90
41928;DHT22;27616;51.420;6.788;2022-12-18T04:25:42;-3.40;99.90
41928;DHT22;27616;51.420;6.788;2022-12-18T04:28:11;-3.50;99.90
41928;DHT22;27616;51.420;6.788;2022-12-18T04:30:38;-3.60;99.90
41928;DHT22;27616;51.420;6.788;2022-12-18T04:33:09;-3.70;99.90
41928;DHT22;27616;51.420;6.788;2022-12-18T04:35:35;-3.80;99.90
41928;DHT22;27616;51.420;6.788;2022-12-18T04:38:00;-3.90;99.90
41928;DHT22;27616;51.420;6.788;2022-12-18T04:40:26;-4.00;99.90
41928;DHT22;27616;51.420;6.788;2022-12-18T04:42:52;-4.10;99.90
41928;DHT22;27616;51.420;6.788;2022-12-18T04:45:18;-4.10;99.90
41928;DHT22;27616;51.420;6.788;2022-12-18T04:47:44;-4.20;99.90
41928;DHT22;27616;51.420;6.788;2022-12-18T04:50:10;-4.30;99.90
41928;DHT22;27616;51.420;6.788;2022-12-18T04:52:35;-4.40;99.90
41928;DHT22;27616;51.420;6.788;2022-12-18T04:55:01;-4.40;99.90
41928;DHT22;27616;51.420;6.788;2022-12-18T04:57:27;-4.50;99.90
41928;DHT22;27616;51.420;6.788;2022-12-18T04:59:53;-4.50;99.90
41928;DHT22;27616;51.420;6.788;2022-12-18T05:02:19;-4.60;99.90
41928;DHT22;27616;51.420;6.788;2022-12-18T05:04:45;-4.60;99.90
41928;DHT22;27616;51.420;6.788;2022-12-18T05:07:10;-4.70;99.90
41928;DHT22;27616;51.420;6.788;2022-12-18T05:09:36;-4.70;99.90
41928;DHT22;27616;51.420;6.788;2022-12-18T05:12:02;-4.70;99.90
41928;DHT22;27616;51.420;6.788;2022-12-18T05:14:27;-4.70;99.90
41928;DHT22;27616;51.420;6.788;2022-12-18T05:16:54;-4.80;99.90
41928;DHT22;27616;51.420;6.788;2022-12-18T05:19:20;-4.90;99.90
41928;DHT22;27616;51.420;6.788;2022-12-18T05:21:46;-4.90;99.90
41928;DHT22;27616;51.420;6.788;2022-12-18T05:24:11;-5.00;99.90
41928;DHT22;27616;51.420;6.788;2022-12-18T05:26:37;-5.00;99.90
41928;DHT22;27616;51.420;6.788;2022-12-18T05:29:03;-5.00;99.90
41928;DHT22;27616;51.420;6.788;2022-12-18T05:31:28;-5.10;99.90
41928;DHT22;27616;51.420;6.788;2022-12-18T05:33:54;-5.10;99.90
41928;DHT22;27616;51.420;6.788;2022-12-18T05:36:20;-5.10;99.90
41928;DHT22;27616;51.420;6.788;2022-12-18T05:38:45;-5.20;99.90
41928;DHT22;27616;51.420;6.788;2022-12-18T05:41:11;-5.20;99.90
41928;DHT22;27616;51.420;6.788;2022-12-18T05:43:38;-5.20;99.90
41928;DHT22;27616;51.420;6.788;2022-12-18T05:46:13;-5.30;99.90
41928;DHT22;27616;51.420;6.788;2022-12-18T05:48:39;-5.30;99.90
41928;DHT22;27616;51.420;6.788;2022-12-18T05:51:10;-5.40;99.90
41928;DHT22;27616;51.420;6.788;2022-12-18T05:53:37;-5.40;99.90
41928;DHT22;27616;51.420;6.788;2022-12-18T05:56:05;-5.40;99.90
41928;DHT22;27616;51.420;6.788;2022-12-18T05:58:32;-5.50;99.90
41928;DHT22;27616;51.420;6.788;2022-12-18T06:01:05;-5.50;99.90
41928;DHT22;27616;51.420;6.788;2022-12-18T06:03:30;-5.50;99.90
41928;DHT22;27616;51.420;6.788;2022-12-18T06:05:56;-5.50;99.90
41928;DHT22;27616;51.420;6.788;2022-12-18T06:08:22;-5.60;99.90
41928;DHT22;27616;51.420;6.788;2022-12-18T06:10:51;-5.70;99.90
41928;DHT22;27616;51.420;6.788;2022-12-18T06:13:21;-5.70;99.90
41928;DHT22;27616;51.420;6.788;2022-12-18T06:15:46;-5.80;99.90
41928;DHT22;27616;51.420;6.788;2022-12-18T06:18:12;-5.80;99.90
41928;DHT22;27616;51.420;6.788;2022-12-18T06:20:38;-5.80;99.90
41928;DHT22;27616;51.420;6.788;2022-12-18T06:23:05;-5.90;99.90
41928;DHT22;27616;51.420;6.788;2022-12-18T06:25:31;-5.90;99.90
41928;DHT22;27616;51.420;6.788;2022-12-18T06:27:58;-5.90;99.90
41928;DHT22;27616;51.420;6.788;2022-12-18T06:30:24;-6.00;99.90
41928;DHT22;27616;51.420;6.788;2022-12-18T06:32:50;-6.00;99.90
41928;DHT22;27616;51.420;6.788;2022-12-18T06:35:16;-6.00;99.90
41928;DHT22;27616;51.420;6.788;2022-12-18T06:37:42;-6.10;99.90
41928;DHT22;27616;51.420;6.788;2022-12-18T06:40:08;-6.10;99.90
41928;DHT22;27616;51.420;6.788;2022-12-18T06:42:34;-6.10;99.90
41928;DHT22;27616;51.420;6.788;2022-12-18T06:45:00;-6.20;99.90
41928;DHT22;27616;51.420;6.788;2022-12-18T06:47:25;-6.20;99.90
41928;DHT22;27616;51.420;6.788;2022-12-18T06:49:51;-6.20;99.90
41928;DHT22;27616;51.420;6.788;2022-12-18T06:52:17;-6.20;99.90
41928;DHT22;27616;51.420;6.788;2022-12-18T06:54:42;-6.30;99.90
41928;DHT22;27616;51.420;6.788;2022-12-18T06:57:08;-6.40;99.90
41928;DHT22;27616;51.420;6.788;2022-12-18T06:59:34;-6.40;99.90
41928;DHT22;27616;51.420;6.788;2022-12-18T07:02:00;-6.40;99.90
41928;DHT22;27616;51.420;6.788;2022-12-18T07:04:31;-6.50;99.90
41928;DHT22;27616;51.420;6.788;2022-12-18T07:06:57;-6.50;99.90
41928;DHT22;27616;51.420;6.788;2022-12-18T07:09:23;-6.50;99.90
41928;DHT22;27616;51.420;6.788;2022-12-18T07:11:49;-6.50;99.90
41928;DHT22;27616;51.420;6.788;2022-12-18T07:14:15;-6.50;99.90
41928;DHT22;27616;51.420;6.788;2022-12-18T07:16:40;-6.50;99.90
41928;DHT22;27616;51.420;6.788;2022-12-18T07:19:06;-6.60;99.90
41928;DHT22;27616;51.420;6.788;2022-12-18T07:21:32;-6.60;99.90
41928;DHT22;27616;51.420;6.788;2022-12-18T07:23:58;-6.60;99.90
41928;DHT22;27616;51.420;6.788;2022-12-18T07:26:23;-6.60;99.90
41928;DHT22;27616;51.420;6.788;2022-12-18T07:28:50;-6.50;99.90
41928;DHT22;27616;51.420;6.788;2022-12-18T07:31:19;-6.50;99.90
41928;DHT22;27616;51.420;6.788;2022-12-18T07:33:46;-6.40;99.90
41928;DHT22;27616;51.420;6.788;2022-12-18T07:36:12;-6.40;99.90
41928;DHT22;27616;51.420;6.788;2022-12-18T07:38:38;-6.50;99.90
41928;DHT22;27616;51.420;6.788;2022-12-18T07:41:06;-6.50;99.90
41928;DHT22;27616;51.420;6.788;2022-12-18T07:43:33;-6.50;99.90
41928;DHT22;27616;51.420;6.788;2022-12-18T07:45:59;-6.50;99.90
41928;DHT22;27616;51.420;6.788;2022-12-18T07:48:25;-6.50;99.90
41928;DHT22;27616;51.420;6.788;2022-12-18T07:50:51;-6.40;99.90
41928;DHT22;27616;51.420;6.788;2022-12-18T07:53:16;-6.50;99.90
41928;DHT22;27616;51.420;6.788;2022-12-18T07:55:42;-6.50;99.90
41928;DHT22;27616;51.420;6.788;2022-12-18T07:58:08;-6.40;99.90
41928;DHT22;27616;51.420;6.788;2022-12-18T08:00:34;-6.30;99.90
41928;DHT22;27616;51.420;6.788;2022-12-18T08:03:01;-6.30;99.90
41928;DHT22;27616;51.420;6.788;2022-12-18T08:05:27;-6.30;99.90
41928;DHT22;27616;51.420;6.788;2022-12-18T08:07:53;-6.30;99.90
41928;DHT22;27616;51.420;6.788;2022-12-18T08:10:19;-6.30;99.90
41928;DHT22;27616;51.420;6.788;2022-12-18T08:12:45;-6.20;99.90
41928;DHT22;27616;51.420;6.788;2022-12-18T08:15:11;-6.20;99.90
41928;DHT22;27616;51.420;6.788;2022-12-18T08:17:37;-6.20;99.90
41928;DHT22;27616;51.420;6.788;2022-12-18T08:20:03;-6.20;99.90
41928;DHT22;27616;51.420;6.788;2022-12-18T08:22:29;-6.20;99.90
41928;DHT22;27616;51.420;6.788;2022-12-18T08:24:55;-6.10;99.90
41928;DHT22;27616;51.420;6.788;2022-12-18T08:27:21;-6.10;99.90
41928;DHT22;27616;51.420;6.788;2022-12-18T08:29:47;-6.00;99.90
41928;DHT22;27616;51.420;6.788;2022-12-18T08:32:12;-6.00;99.90
41928;DHT22;27616;51.420;6.788;2022-12-18T08:34:38;-5.90;99.90
41928;DHT22;27616;51.420;6.788;2022-12-18T08:37:04;-5.80;99.90
41928;DHT22;27616;51.420;6.788;2022-12-18T08:39:29;-5.70;99.90
41928;DHT22;27616;51.420;6.788;2022-12-18T08:41:55;-5.60;99.90
41928;DHT22;27616;51.420;6.788;2022-12-18T08:44:39;-5.50;99.90
41928;DHT22;27616;51.420;6.788;2022-12-18T08:47:06;-5.30;99.90
41928;DHT22;27616;51.420;6.788;2022-12-18T08:49:33;-5.10;99.90
41928;DHT22;27616;51.420;6.788;2022-12-18T08:51:59;-4.80;99.90
41928;DHT22;27616;51.420;6.788;2022-12-18T08:54:25;-4.50;99.90
41928;DHT22;27616;51.420;6.788;2022-12-18T08:56:51;-4.20;99.90
41928;DHT22;27616;51.420;6.788;2022-12-18T08:59:17;-3.90;99.90
41928;DHT22;27616;51.420;6.788;2022-12-18T09:01:43;-3.60;99.90
41928;DHT22;27616;51.420;6.788;2022-12-18T09:04:09;-3.40;99.90
41928;DHT22;27616;51.420;6.788;2022-12-18T09:06:36;-3.20;99.90
41928;DHT22;27616;51.420;6.788;2022-12-18T09:09:02;-3.00;99.90
41928;DHT22;27616;51.420;6.788;2022-12-18T09:11:29;-2.80;99.90
41928;DHT22;27616;51.420;6.788;2022-12-18T09:13:55;-2.60;99.90
41928;DHT22;27616;51.420;6.788;2022-12-18T09:16:22;-2.40;99.90
41928;DHT22;27616;51.420;6.788;2022-12-18T09:18:48;-2.20;99.90
41928;DHT22;27616;51.420;6.788;2022-12-18T09:21:16;-1.80;99.90
41928;DHT22;27616;51.420;6.788;2022-12-18T09:23:43;-1.60;99.90
41928;DHT22;27616;51.420;6.788;2022-12-18T09:26:09;-1.30;99.90
41928;DHT22;27616;51.420;6.788;2022-12-18T09:28:35;-1.10;99.90
41928;DHT22;27616;51.420;6.788;2022-12-18T09:31:05;-0.90;99.90
41928;DHT22;27616;51.420;6.788;2022-12-18T09:33:31;-0.70;99.90
41928;DHT22;27616;51.420;6.788;2022-12-18T09:35:57;-0.50;99.90
41928;DHT22;27616;51.420;6.788;2022-12-18T09:38:23;-0.40;99.90
41928;DHT22;27616;51.420;6.788;2022-12-18T09:40:55;-0.20;99.90
41928;DHT22;27616;51.420;6.788;2022-12-18T09:43:40;0.00;99.90
41928;DHT22;27616;51.420;6.788;2022-12-18T09:46:11;0.10;99.90
41928;DHT22;27616;51.420;6.788;2022-12-18T09:48:44;0.30;99.90
41928;DHT22;27616;51.420;6.788;2022-12-18T09:51:24;0.50;99.90
41928;DHT22;27616;51.420;6.788;2022-12-18T09:53:55;0.60;99.90
41928;DHT22;27616;51.420;6.788;2022-12-18T09:56:23;0.70;99.90
41928;DHT22;27616;51.420;6.788;2022-12-18T09:58:59;0.80;99.90
41928;DHT22;27616;51.420;6.788;2022-12-18T10:01:26;0.80;99.90
41928;DHT22;27616;51.420;6.788;2022-12-18T10:03:53;0.90;99.90
41928;DHT22;27616;51.420;6.788;2022-12-18T10:09:33;1.20;99.90
41928;DHT22;27616;51.420;6.788;2022-12-18T10:12:00;1.30;99.90
41928;DHT22;27616;51.420;6.788;2022-12-18T10:23:12;1.70;99.20
41928;DHT22;27616;51.420;6.788;2022-12-18T10:28:14;1.90;99.20
41928;DHT22;27616;51.420;6.788;2022-12-18T10:30:41;1.90;99.50
41928;DHT22;27616;51.420;6.788;2022-12-18T10:33:16;2.10;98.90
41928;DHT22;27616;51.420;6.788;2022-12-18T10:35:42;2.20;98.00
41928;DHT22;27616;51.420;6.788;2022-12-18T10:43:40;2.50;97.50
41928;DHT22;27616;51.420;6.788;2022-12-18T10:48:48;2.90;97.00
41928;DHT22;27616;51.420;6.788;2022-12-18T10:51:28;3.00;96.20
41928;DHT22;27616;51.420;6.788;2022-12-18T10:54:21;3.10;95.30
41928;DHT22;27616;51.420;6.788;2022-12-18T10:56:48;2.90;95.70
41928;DHT22;27616;51.420;6.788;2022-12-18T10:59:16;2.80;96.30
41928;DHT22;27616;51.420;6.788;2022-12-18T11:01:56;2.70;96.30
41928;DHT22;27616;51.420;6.788;2022-12-18T11:04:23;2.60;96.90
41928;DHT22;27616;51.420;6.788;2022-12-18T11:09:26;2.40;97.20
41928;DHT22;27616;51.420;6.788;2022-12-18T11:11:57;2.40;97.60
41928;DHT22;27616;51.420;6.788;2022-12-18T11:14:48;2.30;97.40
41928;DHT22;27616;51.420;6.788;2022-12-18T11:17:25;2.20;97.90
41928;DHT22;27616;51.420;6.788;2022-12-18T11:19:57;2.20;98.10
41928;DHT22;27616;51.420;6.788;2022-12-18T11:22:34;2.30;97.50
41928;DHT22;27616;51.420;6.788;2022-12-18T11:25:18;2.40;97.50
41928;DHT22;27616;51.420;6.788;2022-12-18T11:30:48;2.40;97.30
41928;DHT22;27616;51.420;6.788;2022-12-18T11:33:19;2.40;97.30
41928;DHT22;27616;51.420;6.788;2022-12-18T11:35:55;2.30;97.50
41928;DHT22;27616;51.420;6.788;2022-12-18T11:38:26;2.30;97.50
41928;DHT22;27616;51.420;6.788;2022-12-18T11:41:00;2.40;97.50
41928;DHT22;27616;51.420;6.788;2022-12-18T11:43:31;2.30;97.50
41928;DHT22;27616;51.420;6.788;2022-12-18T11:46:10;2.40;97.50
41928;DHT22;27616;51.420;6.788;2022-12-18T11:48:49;2.30;97.70
41928;DHT22;27616;51.420;6.788;2022-12-18T11:51:26;2.30;98.00
41928;DHT22;27616;51.420;6.788;2022-12-18T11:53:53;2.10;98.20
41928;DHT22;27616;51.420;6.788;2022-12-18T11:56:26;2.20;98.00
41928;DHT22;27616;51.420;6.788;2022-12-18T11:59:08;2.10;98.50
41928;DHT22;27616;51.420;6.788;2022-12-18T12:01:44;2.10;98.50
41928;DHT22;27616;51.420;6.788;2022-12-18T12:04:34;2.00;98.60
41928;DHT22;27616;51.420;6.788;2022-12-18T12:09:46;2.10;98.00
41928;DHT22;27616;51.420;6.788;2022-12-18T12:12:36;2.00;98.50
41928;DHT22;27616;51.420;6.788;2022-12-18T12:39:56;1.80;99.70
41928;DHT22;27616;51.420;6.788;2022-12-18T12:42:39;1.70;98.90
41928;DHT22;27616;51.420;6.788;2022-12-18T12:48:42;1.70;99.20
41928;DHT22;27616;51.420;6.788;2022-12-18T12:51:30;1.50;99.20
41928;DHT22;27616;51.420;6.788;2022-12-18T12:53:58;1.60;99.50
41928;DHT22;27616;51.420;6.788;2022-12-18T12:56:29;1.50;99.80
41928;DHT22;27616;51.420;6.788;2022-12-18T13:01:58;1.50;99.70
41928;DHT22;27616;51.420;6.788;2022-12-18T13:04:45;1.40;99.80
41928;DHT22;27616;51.420;6.788;2022-12-18T13:07:22;1.50;99.90
41928;DHT22;27616;51.420;6.788;2022-12-18T13:10:14;1.50;99.90
41928;DHT22;27616;51.420;6.788;2022-12-18T13:13:10;1.40;99.90
41928;DHT22;27616;51.420;6.788;2022-12-18T13:16:06;1.40;99.90
41928;DHT22;27616;51.420;6.788;2022-12-18T13:18:33;1.40;99.90
41928;DHT22;27616;51.420;6.788;2022-12-18T13:31:14;1.40;99.90
41928;DHT22;27616;51.420;6.788;2022-12-18T13:33:46;1.30;99.90
41928;DHT22;27616;51.420;6.788;2022-12-18T13:36:27;1.30;99.90
41928;DHT22;27616;51.420;6.788;2022-12-18T13:39:22;1.30;99.90
41928;DHT22;27616;51.420;6.788;2022-12-18T13:44:55;1.30;99.90
41928;DHT22;27616;51.420;6.788;2022-12-18T13:47:37;1.30;99.90
41928;DHT22;27616;51.420;6.788;2022-12-18T13:50:21;1.30;99.90
41928;DHT22;27616;51.420;6.788;2022-12-18T13:52:52;1.30;99.90
41928;DHT22;27616;51.420;6.788;2022-12-18T13:55:19;1.30;99.90
41928;DHT22;27616;51.420;6.788;2022-12-18T13:57:46;1.30;99.90
41928;DHT22;27616;51.420;6.788;2022-12-18T14:00:29;1.30;99.70
41928;DHT22;27616;51.420;6.788;2022-12-18T14:02:56;1.30;99.80
41928;DHT22;27616;51.420;6.788;2022-12-18T14:05:27;1.20;99.70
41928;DHT22;27616;51.420;6.788;2022-12-18T14:07:54;1.20;99.90
41928;DHT22;27616;51.420;6.788;2022-12-18T14:10:21;1.20;99.90
41928;DHT22;27616;51.420;6.788;2022-12-18T14:12:49;1.20;99.90
41928;DHT22;27616;51.420;6.788;2022-12-18T14:15:30;1.10;99.90
41928;DHT22;27616;51.420;6.788;2022-12-18T14:20:47;1.10;99.90
41928;DHT22;27616;51.420;6.788;2022-12-18T14:23:36;1.20;99.90
41928;DHT22;27616;51.420;6.788;2022-12-18T14:28:48;1.10;99.90
41928;DHT22;27616;51.420;6.788;2022-12-18T14:31:32;1.10;99.90
41928;DHT22;27616;51.420;6.788;2022-12-18T14:33:58;1.10;99.90
41928;DHT22;27616;51.420;6.788;2022-12-18T14:36:26;1.10;99.90
41928;DHT22;27616;51.420;6.788;2022-12-18T14:39:01;1.10;99.90
41928;DHT22;27616;51.420;6.788;2022-12-18T14:41:27;1.10;99.90
41928;DHT22;27616;51.420;6.788;2022-12-18T14:43:54;1.10;99.90
41928;DHT22;27616;51.420;6.788;2022-12-18T14:49:00;1.10;99.80
41928;DHT22;27616;51.420;6.788;2022-12-18T14:51:28;1.00;99.80
41928;DHT22;27616;51.420;6.788;2022-12-18T14:54:05;1.10;99.90
41928;DHT22;27616;51.420;6.788;2022-12-18T14:56:45;1.10;99.90
41928;DHT22;27616;51.420;6.788;2022-12-18T14:59:21;1.00;99.90
41928;DHT22;27616;51.420;6.788;2022-12-18T15:02:03;1.00;99.90
41928;DHT22;27616;51.420;6.788;2022-12-18T15:04:34;1.00;99.90
41928;DHT22;27616;51.420;6.788;2022-12-18T15:09:35;1.00;99.90
41928;DHT22;27616;51.420;6.788;2022-12-18T15:12:02;1.00;99.90
41928;DHT22;27616;51.420;6.788;2022-12-18T15:14:33;0.90;99.90
41928;DHT22;27616;51.420;6.788;2022-12-18T15:17:06;0.90;99.90
41928;DHT22;27616;51.420;6.788;2022-12-18T15:19:41;1.00;99.90
41928;DHT22;27616;51.420;6.788;2022-12-18T15:22:27;0.90;99.90
41928;DHT22;27616;51.420;6.788;2022-12-18T15:24:55;1.00;99.90
41928;DHT22;27616;51.420;6.788;2022-12-18T15:32:27;0.90;99.90
41928;DHT22;27616;51.420;6.788;2022-12-18T15:35:11;0.80;99.90
41928;DHT22;27616;51.420;6.788;2022-12-18T15:37:40;0.90;99.90
41928;DHT22;27616;51.420;6.788;2022-12-18T15:40:07;1.00;99.90
41928;DHT22;27616;51.420;6.788;2022-12-18T15:42:33;1.00;99.90
41928;DHT22;27616;51.420;6.788;2022-12-18T15:45:18;1.00;99.90
41928;DHT22;27616;51.420;6.788;2022-12-18T15:47:44;0.90;99.90
41928;DHT22;27616;51.420;6.788;2022-12-18T15:50:10;0.90;99.90
41928;DHT22;27616;51.420;6.788;2022-12-18T15:52:46;0.90;99.90
41928;DHT22;27616;51.420;6.788;2022-12-18T15:55:17;0.80;99.90
41928;DHT22;27616;51.420;6.788;2022-12-18T15:58:03;0.90;99.90
41928;DHT22;27616;51.420;6.788;2022-12-18T16:00:29;0.80;99.90
41928;DHT22;27616;51.420;6.788;2022-12-18T16:02:54;0.80;99.90
41928;DHT22;27616;51.420;6.788;2022-12-18T16:05:22;0.80;99.90
41928;DHT22;27616;51.420;6.788;2022-12-18T16:07:48;0.80;99.90
41928;DHT22;27616;51.420;6.788;2022-12-18T16:10:14;0.80;99.90
41928;DHT22;27616;51.420;6.788;2022-12-18T16:12:40;0.70;99.90
41928;DHT22;27616;51.420;6.788;2022-12-18T16:15:07;0.70;99.90
41928;DHT22;27616;51.420;6.788;2022-12-18T16:17:33;0.70;99.90
41928;DHT22;27616;51.420;6.788;2022-12-18T16:19:59;0.70;99.90
41928;DHT22;27616;51.420;6.788;2022-12-18T16:22:27;0.70;99.90
41928;DHT22;27616;51.420;6.788;2022-12-18T16:24:54;0.70;99.90
41928;DHT22;27616;51.420;6.788;2022-12-18T16:27:21;0.60;99.90
41928;DHT22;27616;51.420;6.788;2022-12-18T16:29:48;0.50;99.90
41928;DHT22;27616;51.420;6.788;2022-12-18T16:32:19;0.50;99.90
41928;DHT22;27616;51.420;6.788;2022-12-18T16:34:45;0.50;99.90
41928;DHT22;27616;51.420;6.788;2022-12-18T16:37:13;0.50;99.90
41928;DHT22;27616;51.420;6.788;2022-12-18T16:39:39;0.50;99.90
41928;DHT22;27616;51.420;6.788;2022-12-18T16:42:16;0.50;99.90
41928;DHT22;27616;51.420;6.788;2022-12-18T16:44:45;0.40;99.90
41928;DHT22;27616;51.420;6.788;2022-12-18T16:47:12;0.40;99.90
41928;DHT22;27616;51.420;6.788;2022-12-18T16:49:37;0.40;99.90
41928;DHT22;27616;51.420;6.788;2022-12-18T16:52:04;0.40;99.90
41928;DHT22;27616;51.420;6.788;2022-12-18T16:54:30;0.40;99.90
41928;DHT22;27616;51.420;6.788;2022-12-18T16:56:58;0.40;99.90
41928;DHT22;27616;51.420;6.788;2022-12-18T16:59:25;0.40;99.90
41928;DHT22;27616;51.420;6.788;2022-12-18T17:01:51;0.40;99.90
41928;DHT22;27616;51.420;6.788;2022-12-18T17:04:17;0.30;99.90
41928;DHT22;27616;51.420;6.788;2022-12-18T17:06:44;0.30;99.90
41928;DHT22;27616;51.420;6.788;2022-12-18T17:09:16;0.30;99.90
41928;DHT22;27616;51.420;6.788;2022-12-18T17:11:43;0.30;99.90
41928;DHT22;27616;51.420;6.788;2022-12-18T17:14:17;0.30;99.90
41928;DHT22;27616;51.420;6.788;2022-12-18T17:16:43;0.30;99.90
41928;DHT22;27616;51.420;6.788;2022-12-18T17:19:09;0.20;99.90
41928;DHT22;27616;51.420;6.788;2022-12-18T17:21:35;0.20;99.90
41928;DHT22;27616;51.420;6.788;2022-12-18T17:24:01;0.20;99.90
41928;DHT22;27616;51.420;6.788;2022-12-18T17:26:27;0.20;99.90
41928;DHT22;27616;51.420;6.788;2022-12-18T17:28:55;0.20;99.90
41928;DHT22;27616;51.420;6.788;2022-12-18T17:31:23;0.10;99.90
41928;DHT22;27616;51.420;6.788;2022-12-18T17:33:49;0.20;99.90
41928;DHT22;27616;51.420;6.788;2022-12-18T17:36:15;0.10;99.90
41928;DHT22;27616;51.420;6.788;2022-12-18T17:38:41;0.10;99.90
41928;DHT22;27616;51.420;6.788;2022-12-18T17:41:09;0.10;99.90
41928;DHT22;27616;51.420;6.788;2022-12-18T17:43:35;0.10;99.90
41928;DHT22;27616;51.420;6.788;2022-12-18T17:46:06;0.10;99.90
41928;DHT22;27616;51.420;6.788;2022-12-18T17:48:32;0.10;99.90
41928;DHT22;27616;51.420;6.788;2022-12-18T17:51:02;0.00;99.90
41928;DHT22;27616;51.420;6.788;2022-12-18T17:53:28;0.00;99.90
41928;DHT22;27616;51.420;6.788;2022-12-18T17:55:55;0.00;99.90
41928;DHT22;27616;51.420;6.788;2022-12-18T17:58:21;0.10;99.90
41928;DHT22;27616;51.420;6.788;2022-12-18T18:00:46;0.10;99.90